sensor_id;sensor_type;location;lat;lon;timestamp;P1;durP1;ratioP1;P2;durP2;ratioP2
70942;SDS011;59154;51.970;5.650;2023-04-24T00:00:03;5.6;;;2.6;;
70942;SDS011;59154;51.970;5.650;2023-04-24T00:05:02;2.7;;;2.2;;
70942;SDS011;59154;51.970;5.650;2023-04-24T00:10:03;3.7;;;2.3;;
70942;SDS011;59154;51.970;5.650;2023-04-24T00:15:02;5.1;;;2.8;;
70942;SDS011;59154;51.970;5.650;2023-04-24T00:20:03;2.6;;;1.7;;
70942;SDS011;59154;51.970;5.650;2023-04-24T00:25:02;2.8;;;1.7;;
70942;SDS011;59154;51.970;5.650;2023-04-24T00:30:02;3.2;;;1.9;;
70942;SDS011;59154;51.970;5.650;2023-04-24T00:35:02;3.8;;;1.9;;
70942;SDS011;59154;51.970;5.650;2023-04-24T00:40:04;2.0;;;1.5;;
70942;SDS011;59154;51.970;5.650;2023-04-24T00:45:02;2.9;;;1.9;;
70942;SDS011;59154;51.970;5.650;2023-04-24T00:50:03;4.2;;;2.2;;
70942;SDS011;59154;51.970;5.650;2023-04-24T00:55:02;3.6;;;2.9;;
70942;SDS011;59154;51.970;5.650;2023-04-24T01:00:03;5.1;;;3.0;;
70942;SDS011;59154;51.970;5.650;2023-04-24T01:05:02;2.3;;;1.8;;
70942;SDS011;59154;51.970;5.650;2023-04-24T01:10:03;1.2;;;1.0;;
70942;SDS011;59154;51.970;5.650;2023-04-24T01:15:03;1.6;;;1.2;;
70942;SDS011;59154;51.970;5.650;2023-04-24T01:20:03;1.9;;;1.5;;
70942;SDS011;59154;51.970;5.650;2023-04-24T01:25:02;1.9;;;1.4;;
70942;SDS011;59154;51.970;5.650;2023-04-24T01:30:03;1.8;;;1.3;;
70942;SDS011;59154;51.970;5.650;2023-04-24T01:35:02;1.8;;;1.5;;
70942;SDS011;59154;51.970;5.650;2023-04-24T01:40:03;2.7;;;1.6;;
70942;SDS011;59154;51.970;5.650;2023-04-24T01:45:03;1.8;;;1.3;;
70942;SDS011;59154;51.970;5.650;2023-04-24T01:50:02;2.5;;;1.7;;
70942;SDS011;59154;51.970;5.650;2023-04-24T01:55:02;3.3;;;1.9;;
70942;SDS011;59154;51.970;5.650;2023-04-24T02:00:03;2.8;;;1.8;;
70942;SDS011;59154;51.970;5.650;2023-04-24T02:05:03;3.5;;;2.1;;
70942;SDS011;59154;51.970;5.650;2023-04-24T02:10:03;3.7;;;2.5;;
70942;SDS011;59154;51.970;5.650;2023-04-24T02:15:02;4.7;;;2.9;;
70942;SDS011;59154;51.970;5.650;2023-04-24T02:20:03;4.1;;;3.4;;
70942;SDS011;59154;51.970;5.650;2023-04-24T02:25:02;5.8;;;4.9;;
70942;SDS011;59154;51.970;5.650;2023-04-24T02:30:03;7.2;;;6.1;;
70942;SDS011;59154;51.970;5.650;2023-04-24T02:35:02;7.3;;;5.8;;
70942;SDS011;59154;51.970;5.650;2023-04-24T02:40:04;8.1;;;6.5;;
70942;SDS011;59154;51.970;5.650;2023-04-24T02:45:02;7.8;;;5.8;;
70942;SDS011;59154;51.970;5.650;2023-04-24T02:50:03;6.6;;;5.2;;
70942;SDS011;59154;51.970;5.650;2023-04-24T02:55:03;6.0;;;4.0;;
70942;SDS011;59154;51.970;5.650;2023-04-24T03:00:03;4.4;;;3.4;;
70942;SDS011;59154;51.970;5.650;2023-04-24T03:05:02;4.2;;;3.2;;
70942;SDS011;59154;51.970;5.650;2023-04-24T03:10:02;5.7;;;3.1;;
70942;SDS011;59154;51.970;5.650;2023-04-24T03:15:03;4.1;;;3.4;;
70942;SDS011;59154;51.970;5.650;2023-04-24T03:20:03;6.2;;;4.6;;
70942;SDS011;59154;51.970;5.650;2023-04-24T03:25:02;8.7;;;6.9;;
70942;SDS011;59154;51.970;5.650;2023-04-24T03:30:02;8.1;;;6.9;;
70942;SDS011;59154;51.970;5.650;2023-04-24T03:35:03;7.9;;;6.5;;
70942;SDS011;59154;51.970;5.650;2023-04-24T03:40:03;10.4;;;8.1;;
70942;SDS011;59154;51.970;5.650;2023-04-24T03:45:03;11.2;;;9.3;;
70942;SDS011;59154;51.970;5.650;2023-04-24T03:50:02;9.3;;;8.0;;
70942;SDS011;59154;51.970;5.650;2023-04-24T03:55:03;11.8;;;9.2;;
70942;SDS011;59154;51.970;5.650;2023-04-24T04:00:03;12.7;;;10.3;;
70942;SDS011;59154;51.970;5.650;2023-04-24T04:05:02;15.1;;;12.0;;
70942;SDS011;59154;51.970;5.650;2023-04-24T04:10:03;15.1;;;11.6;;
70942;SDS011;59154;51.970;5.650;2023-04-24T04:15:02;14.6;;;12.4;;
70942;SDS011;59154;51.970;5.650;2023-04-24T04:20:04;15.7;;;12.2;;
70942;SDS011;59154;51.970;5.650;2023-04-24T04:25:02;12.9;;;10.2;;
70942;SDS011;59154;51.970;5.650;2023-04-24T04:30:03;14.7;;;11.6;;
70942;SDS011;59154;51.970;5.650;2023-04-24T04:35:02;13.6;;;12.2;;
70942;SDS011;59154;51.970;5.650;2023-04-24T04:40:04;16.1;;;11.1;;
70942;SDS011;59154;51.970;5.650;2023-04-24T04:45:02;14.9;;;11.0;;
70942;SDS011;59154;51.970;5.650;2023-04-24T04:50:02;12.7;;;9.9;;
70942;SDS011;59154;51.970;5.650;2023-04-24T04:55:03;12.7;;;9.7;;
70942;SDS011;59154;51.970;5.650;2023-04-24T05:00:03;10.1;;;6.9;;
70942;SDS011;59154;51.970;5.650;2023-04-24T05:05:02;5.8;;;4.3;;
70942;SDS011;59154;51.970;5.650;2023-04-24T05:10:02;5.6;;;4.1;;
70942;SDS011;59154;51.970;5.650;2023-04-24T05:15:02;5.5;;;3.9;;
70942;SDS011;59154;51.970;5.650;2023-04-24T05:20:03;5.9;;;4.0;;
70942;SDS011;59154;51.970;5.650;2023-04-24T05:25:02;5.2;;;3.8;;
70942;SDS011;59154;51.970;5.650;2023-04-24T05:30:03;6.4;;;3.9;;
70942;SDS011;59154;51.970;5.650;2023-04-24T05:35:02;5.9;;;4.1;;
70942;SDS011;59154;51.970;5.650;2023-04-24T05:40:03;8.1;;;4.4;;
70942;SDS011;59154;51.970;5.650;2023-04-24T05:45:02;9.6;;;6.1;;
70942;SDS011;59154;51.970;5.650;2023-04-24T05:50:03;8.8;;;6.0;;
70942;SDS011;59154;51.970;5.650;2023-04-24T05:55:02;6.1;;;5.0;;
70942;SDS011;59154;51.970;5.650;2023-04-24T06:00:03;5.4;;;4.4;;
70942;SDS011;59154;51.970;5.650;2023-04-24T06:05:02;5.7;;;4.0;;
70942;SDS011;59154;51.970;5.650;2023-04-24T06:10:02;4.6;;;3.6;;
70942;SDS011;59154;51.970;5.650;2023-04-24T06:15:02;5.2;;;3.3;;
70942;SDS011;59154;51.970;5.650;2023-04-24T06:20:03;4.4;;;3.2;;
70942;SDS011;59154;51.970;5.650;2023-04-24T06:25:02;4.0;;;3.2;;
70942;SDS011;59154;51.970;5.650;2023-04-24T06:30:02;3.7;;;2.6;;
70942;SDS011;59154;51.970;5.650;2023-04-24T06:35:02;3.5;;;2.3;;
70942;SDS011;59154;51.970;5.650;2023-04-24T06:40:03;3.5;;;2.0;;
70942;SDS011;59154;51.970;5.650;2023-04-24T06:45:03;2.9;;;2.1;;
70942;SDS011;59154;51.970;5.650;2023-04-24T06:50:03;3.2;;;2.0;;
70942;SDS011;59154;51.970;5.650;2023-04-24T06:55:03;3.2;;;2.3;;
70942;SDS011;59154;51.970;5.650;2023-04-24T07:00:03;3.0;;;1.9;;
70942;SDS011;59154;51.970;5.650;2023-04-24T07:05:02;0.9;;;0.9;;
70942;SDS011;59154;51.970;5.650;2023-04-24T07:10:03;1.2;;;1.0;;
70942;SDS011;59154;51.970;5.650;2023-04-24T07:15:02;1.4;;;1.1;;
70942;SDS011;59154;51.970;5.650;2023-04-24T07:20:03;3.0;;;1.3;;
70942;SDS011;59154;51.970;5.650;2023-04-24T07:25:02;3.6;;;2.3;;
70942;SDS011;59154;51.970;5.650;2023-04-24T07:30:02;4.4;;;2.9;;
70942;SDS011;59154;51.970;5.650;2023-04-24T07:35:02;5.7;;;3.4;;
70942;SDS011;59154;51.970;5.650;2023-04-24T07:40:03;6.4;;;3.8;;
70942;SDS011;59154;51.970;5.650;2023-04-24T07:45:02;5.4;;;3.9;;
70942;SDS011;59154;51.970;5.650;2023-04-24T07:50:02;6.4;;;4.3;;
70942;SDS011;59154;51.970;5.650;2023-04-24T07:55:02;8.7;;;5.6;;
70942;SDS011;59154;51.970;5.650;2023-04-24T08:00:03;8.3;;;5.9;;
70942;SDS011;59154;51.970;5.650;2023-04-24T08:05:02;10.0;;;4.4;;
70942;SDS011;59154;51.970;5.650;2023-04-24T08:10:02;6.0;;;4.8;;
70942;SDS011;59154;51.970;5.650;2023-04-24T08:15:03;8.2;;;5.2;;
70942;SDS011;59154;51.970;5.650;2023-04-24T08:20:04;10.4;;;5.5;;
70942;SDS011;59154;51.970;5.650;2023-04-24T08:25:02;9.0;;;5.4;;
70942;SDS011;59154;51.970;5.650;2023-04-24T08:30:03;8.4;;;5.6;;
70942;SDS011;59154;51.970;5.650;2023-04-24T08:35:02;10.3;;;5.5;;
70942;SDS011;59154;51.970;5.650;2023-04-24T08:40:05;7.3;;;4.7;;
70942;SDS011;59154;51.970;5.650;2023-04-24T08:45:02;9.5;;;5.5;;
70942;SDS011;59154;51.970;5.650;2023-04-24T08:50:02;7.5;;;4.1;;
70942;SDS011;59154;51.970;5.650;2023-04-24T08:55:02;6.6;;;3.4;;
70942;SDS011;59154;51.970;5.650;2023-04-24T09:00:03;7.5;;;4.0;;
70942;SDS011;59154;51.970;5.650;2023-04-24T09:05:02;12.7;;;4.2;;
70942;SDS011;59154;51.970;5.650;2023-04-24T09:10:03;7.1;;;3.8;;
70942;SDS011;59154;51.970;5.650;2023-04-24T09:15:02;8.8;;;3.7;;
70942;SDS011;59154;51.970;5.650;2023-04-24T09:20:03;10.0;;;3.5;;
70942;SDS011;59154;51.970;5.650;2023-04-24T09:25:03;5.4;;;2.2;;
70942;SDS011;59154;51.970;5.650;2023-04-24T09:30:03;9.0;;;2.4;;
70942;SDS011;59154;51.970;5.650;2023-04-24T09:35:07;8.1;;;2.7;;
70942;SDS011;59154;51.970;5.650;2023-04-24T09:40:11;8.3;;;3.2;;
70942;SDS011;59154;51.970;5.650;2023-04-24T09:45:02;9.0;;;2.6;;
70942;SDS011;59154;51.970;5.650;2023-04-24T09:50:08;8.7;;;2.6;;
70942;SDS011;59154;51.970;5.650;2023-04-24T09:55:03;8.6;;;2.8;;
70942;SDS011;59154;51.970;5.650;2023-04-24T10:00:03;7.8;;;2.8;;
70942;SDS011;59154;51.970;5.650;2023-04-24T10:05:03;7.6;;;3.2;;
70942;SDS011;59154;51.970;5.650;2023-04-24T10:10:02;5.4;;;2.9;;
70942;SDS011;59154;51.970;5.650;2023-04-24T10:15:02;4.4;;;2.6;;
70942;SDS011;59154;51.970;5.650;2023-04-24T10:20:02;5.9;;;2.5;;
70942;SDS011;59154;51.970;5.650;2023-04-24T10:25:03;4.3;;;2.2;;
70942;SDS011;59154;51.970;5.650;2023-04-24T10:30:03;4.9;;;2.2;;
70942;SDS011;59154;51.970;5.650;2023-04-24T10:35:02;6.2;;;2.2;;
70942;SDS011;59154;51.970;5.650;2023-04-24T10:40:04;5.0;;;2.0;;
70942;SDS011;59154;51.970;5.650;2023-04-24T10:45:04;5.1;;;1.9;;
70942;SDS011;59154;51.970;5.650;2023-04-24T10:50:03;4.8;;;1.8;;
70942;SDS011;59154;51.970;5.650;2023-04-24T10:55:03;6.5;;;2.0;;
70942;SDS011;59154;51.970;5.650;2023-04-24T11:00:13;4.8;;;1.6;;
70942;SDS011;59154;51.970;5.650;2023-04-24T11:05:02;4.6;;;1.9;;
70942;SDS011;59154;51.970;5.650;2023-04-24T11:10:03;2.7;;;1.5;;
70942;SDS011;59154;51.970;5.650;2023-04-24T11:15:02;3.5;;;1.3;;
70942;SDS011;59154;51.970;5.650;2023-04-24T11:20:03;3.8;;;1.3;;
70942;SDS011;59154;51.970;5.650;2023-04-24T11:25:02;3.9;;;1.2;;
70942;SDS011;59154;51.970;5.650;2023-04-24T11:30:03;2.5;;;1.5;;
70942;SDS011;59154;51.970;5.650;2023-04-24T11:35:03;2.7;;;1.2;;
70942;SDS011;59154;51.970;5.650;2023-04-24T11:40:03;2.6;;;1.1;;
70942;SDS011;59154;51.970;5.650;2023-04-24T11:45:06;1.9;;;1.0;;
70942;SDS011;59154;51.970;5.650;2023-04-24T11:50:03;2.0;;;1.2;;
70942;SDS011;59154;51.970;5.650;2023-04-24T11:55:03;1.8;;;1.1;;
70942;SDS011;59154;51.970;5.650;2023-04-24T12:00:03;2.6;;;1.2;;
70942;SDS011;59154;51.970;5.650;2023-04-24T12:05:02;2.6;;;1.2;;
70942;SDS011;59154;51.970;5.650;2023-04-24T12:10:02;3.4;;;1.5;;
70942;SDS011;59154;51.970;5.650;2023-04-24T12:15:05;3.8;;;1.3;;
70942;SDS011;59154;51.970;5.650;2023-04-24T12:20:03;3.6;;;1.9;;
70942;SDS011;59154;51.970;5.650;2023-04-24T12:25:03;2.7;;;1.1;;
70942;SDS011;59154;51.970;5.650;2023-04-24T12:30:03;1.6;;;1.1;;
70942;SDS011;59154;51.970;5.650;2023-04-24T12:35:04;2.3;;;1.2;;
70942;SDS011;59154;51.970;5.650;2023-04-24T12:40:05;2.3;;;1.1;;
70942;SDS011;59154;51.970;5.650;2023-04-24T12:45:03;3.3;;;1.1;;
70942;SDS011;59154;51.970;5.650;2023-04-24T12:50:03;3.5;;;1.6;;
70942;SDS011;59154;51.970;5.650;2023-04-24T12:55:03;5.0;;;1.4;;
70942;SDS011;59154;51.970;5.650;2023-04-24T13:00:03;1.7;;;1.2;;
70942;SDS011;59154;51.970;5.650;2023-04-24T13:05:02;3.7;;;1.4;;
70942;SDS011;59154;51.970;5.650;2023-04-24T13:10:03;4.6;;;1.6;;
70942;SDS011;59154;51.970;5.650;2023-04-24T13:15:02;4.5;;;1.5;;
70942;SDS011;59154;51.970;5.650;2023-04-24T13:20:03;4.2;;;1.5;;
70942;SDS011;59154;51.970;5.650;2023-04-24T13:25:02;4.4;;;1.6;;
70942;SDS011;59154;51.970;5.650;2023-04-24T13:30:03;5.6;;;1.9;;
70942;SDS011;59154;51.970;5.650;2023-04-24T13:35:02;9.0;;;2.5;;
70942;SDS011;59154;51.970;5.650;2023-04-24T13:40:03;6.6;;;2.0;;
70942;SDS011;59154;51.970;5.650;2023-04-24T13:45:02;3.8;;;2.2;;
70942;SDS011;59154;51.970;5.650;2023-04-24T13:50:03;4.3;;;1.5;;
70942;SDS011;59154;51.970;5.650;2023-04-24T13:55:02;5.2;;;1.8;;
70942;SDS011;59154;51.970;5.650;2023-04-24T14:00:03;3.7;;;1.8;;
70942;SDS011;59154;51.970;5.650;2023-04-24T14:05:02;6.6;;;2.1;;
70942;SDS011;59154;51.970;5.650;2023-04-24T14:10:03;7.2;;;2.3;;
70942;SDS011;59154;51.970;5.650;2023-04-24T14:15:02;9.6;;;3.3;;
70942;SDS011;59154;51.970;5.650;2023-04-24T14:20:03;6.8;;;2.1;;
70942;SDS011;59154;51.970;5.650;2023-04-24T14:25:02;5.3;;;1.7;;
70942;SDS011;59154;51.970;5.650;2023-04-24T14:30:03;6.2;;;2.5;;
70942;SDS011;59154;51.970;5.650;2023-04-24T14:35:02;5.1;;;1.8;;
70942;SDS011;59154;51.970;5.650;2023-04-24T14:40:03;5.6;;;2.3;;
70942;SDS011;59154;51.970;5.650;2023-04-24T14:45:02;5.3;;;2.1;;
70942;SDS011;59154;51.970;5.650;2023-04-24T14:50:03;8.0;;;2.5;;
70942;SDS011;59154;51.970;5.650;2023-04-24T14:55:02;4.9;;;2.3;;
70942;SDS011;59154;51.970;5.650;2023-04-24T15:00:03;5.3;;;2.4;;
70942;SDS011;59154;51.970;5.650;2023-04-24T15:05:02;10.5;;;2.6;;
70942;SDS011;59154;51.970;5.650;2023-04-24T15:10:03;6.7;;;3.0;;
70942;SDS011;59154;51.970;5.650;2023-04-24T15:15:03;6.9;;;2.8;;
70942;SDS011;59154;51.970;5.650;2023-04-24T15:20:03;6.1;;;2.3;;
70942;SDS011;59154;51.970;5.650;2023-04-24T15:25:03;9.1;;;2.7;;
70942;SDS011;59154;51.970;5.650;2023-04-24T15:30:03;7.7;;;2.5;;
70942;SDS011;59154;51.970;5.650;2023-04-24T15:35:02;6.1;;;2.4;;
70942;SDS011;59154;51.970;5.650;2023-04-24T15:40:03;4.7;;;2.5;;
70942;SDS011;59154;51.970;5.650;2023-04-24T15:45:02;4.4;;;2.4;;
70942;SDS011;59154;51.970;5.650;2023-04-24T15:50:03;4.8;;;2.1;;
70942;SDS011;59154;51.970;5.650;2023-04-24T15:55:02;5.7;;;2.3;;
70942;SDS011;59154;51.970;5.650;2023-04-24T16:00:04;5.8;;;2.5;;
70942;SDS011;59154;51.970;5.650;2023-04-24T16:05:02;6.4;;;3.0;;
70942;SDS011;59154;51.970;5.650;2023-04-24T16:10:03;8.1;;;3.5;;
70942;SDS011;59154;51.970;5.650;2023-04-24T16:15:02;9.0;;;3.3;;
70942;SDS011;59154;51.970;5.650;2023-04-24T16:20:03;7.4;;;3.0;;
70942;SDS011;59154;51.970;5.650;2023-04-24T16:25:02;8.4;;;3.4;;
70942;SDS011;59154;51.970;5.650;2023-04-24T16:30:02;7.9;;;3.3;;
70942;SDS011;59154;51.970;5.650;2023-04-24T16:35:02;8.9;;;3.1;;
70942;SDS011;59154;51.970;5.650;2023-04-24T16:40:03;7.3;;;3.8;;
70942;SDS011;59154;51.970;5.650;2023-04-24T16:45:02;7.2;;;2.9;;
70942;SDS011;59154;51.970;5.650;2023-04-24T16:50:03;7.0;;;2.9;;
70942;SDS011;59154;51.970;5.650;2023-04-24T16:55:02;10.9;;;3.4;;
70942;SDS011;59154;51.970;5.650;2023-04-24T17:00:03;6.5;;;3.3;;
70942;SDS011;59154;51.970;5.650;2023-04-24T17:05:02;9.0;;;3.9;;
70942;SDS011;59154;51.970;5.650;2023-04-24T17:10:02;8.4;;;3.2;;
70942;SDS011;59154;51.970;5.650;2023-04-24T17:15:03;12.4;;;3.0;;
70942;SDS011;59154;51.970;5.650;2023-04-24T17:20:03;7.4;;;3.1;;
70942;SDS011;59154;51.970;5.650;2023-04-24T17:25:02;7.3;;;2.9;;
70942;SDS011;59154;51.970;5.650;2023-04-24T17:30:02;7.3;;;2.8;;
70942;SDS011;59154;51.970;5.650;2023-04-24T17:35:02;9.1;;;2.9;;
70942;SDS011;59154;51.970;5.650;2023-04-24T17:40:03;10.4;;;3.4;;
70942;SDS011;59154;51.970;5.650;2023-04-24T17:45:02;8.4;;;3.0;;
70942;SDS011;59154;51.970;5.650;2023-04-24T17:50:02;5.3;;;2.4;;
70942;SDS011;59154;51.970;5.650;2023-04-24T17:55:03;10.6;;;3.3;;
70942;SDS011;59154;51.970;5.650;2023-04-24T18:00:03;8.0;;;3.3;;
70942;SDS011;59154;51.970;5.650;2023-04-24T18:05:02;6.9;;;3.1;;
70942;SDS011;59154;51.970;5.650;2023-04-24T18:10:02;7.5;;;3.3;;
70942;SDS011;59154;51.970;5.650;2023-04-24T18:15:02;8.9;;;3.6;;
70942;SDS011;59154;51.970;5.650;2023-04-24T18:20:03;11.6;;;5.3;;
70942;SDS011;59154;51.970;5.650;2023-04-24T18:25:02;12.0;;;4.1;;
70942;SDS011;59154;51.970;5.650;2023-04-24T18:30:03;14.7;;;4.0;;
70942;SDS011;59154;51.970;5.650;2023-04-24T18:35:02;12.8;;;4.0;;
70942;SDS011;59154;51.970;5.650;2023-04-24T18:40:03;10.5;;;4.7;;
70942;SDS011;59154;51.970;5.650;2023-04-24T18:45:03;8.5;;;4.3;;
70942;SDS011;59154;51.970;5.650;2023-04-24T18:50:02;10.8;;;4.6;;
70942;SDS011;59154;51.970;5.650;2023-04-24T18:55:03;8.6;;;3.9;;
70942;SDS011;59154;51.970;5.650;2023-04-24T19:00:03;7.5;;;3.5;;
70942;SDS011;59154;51.970;5.650;2023-04-24T19:05:02;9.3;;;3.4;;
70942;SDS011;59154;51.970;5.650;2023-04-24T19:10:03;10.9;;;4.1;;
70942;SDS011;59154;51.970;5.650;2023-04-24T19:15:02;8.0;;;3.4;;
70942;SDS011;59154;51.970;5.650;2023-04-24T19:20:03;13.3;;;3.3;;
70942;SDS011;59154;51.970;5.650;2023-04-24T19:25:02;7.4;;;3.1;;
70942;SDS011;59154;51.970;5.650;2023-04-24T19:30:03;6.7;;;3.3;;
70942;SDS011;59154;51.970;5.650;2023-04-24T19:35:02;5.6;;;2.7;;
70942;SDS011;59154;51.970;5.650;2023-04-24T19:40:03;7.0;;;3.0;;
70942;SDS011;59154;51.970;5.650;2023-04-24T19:45:03;9.1;;;3.6;;
70942;SDS011;59154;51.970;5.650;2023-04-24T19:50:03;9.8;;;3.1;;
70942;SDS011;59154;51.970;5.650;2023-04-24T19:55:02;10.3;;;3.9;;
70942;SDS011;59154;51.970;5.650;2023-04-24T20:00:03;10.5;;;3.6;;
70942;SDS011;59154;51.970;5.650;2023-04-24T20:05:02;9.9;;;4.0;;
70942;SDS011;59154;51.970;5.650;2023-04-24T20:10:02;8.3;;;3.4;;
70942;SDS011;59154;51.970;5.650;2023-04-24T20:15:02;7.6;;;3.1;;
70942;SDS011;59154;51.970;5.650;2023-04-24T20:20:03;7.3;;;3.6;;
70942;SDS011;59154;51.970;5.650;2023-04-24T20:25:03;7.0;;;3.2;;
70942;SDS011;59154;51.970;5.650;2023-04-24T20:30:02;5.8;;;2.1;;
70942;SDS011;59154;51.970;5.650;2023-04-24T20:35:02;6.7;;;2.3;;
70942;SDS011;59154;51.970;5.650;2023-04-24T20:40:04;7.5;;;2.8;;
70942;SDS011;59154;51.970;5.650;2023-04-24T20:45:03;3.6;;;2.3;;
70942;SDS011;59154;51.970;5.650;2023-04-24T20:50:03;3.8;;;2.4;;
70942;SDS011;59154;51.970;5.650;2023-04-24T20:55:02;5.9;;;2.1;;
70942;SDS011;59154;51.970;5.650;2023-04-24T21:00:03;6.9;;;2.4;;
70942;SDS011;59154;51.970;5.650;2023-04-24T21:05:02;4.0;;;2.3;;
70942;SDS011;59154;51.970;5.650;2023-04-24T21:10:03;4.2;;;2.0;;
70942;SDS011;59154;51.970;5.650;2023-04-24T21:15:02;4.5;;;2.2;;
70942;SDS011;59154;51.970;5.650;2023-04-24T21:20:03;4.3;;;1.9;;
70942;SDS011;59154;51.970;5.650;2023-04-24T21:25:02;6.0;;;1.8;;
70942;SDS011;59154;51.970;5.650;2023-04-24T21:30:03;4.0;;;2.2;;
70942;SDS011;59154;51.970;5.650;2023-04-24T21:35:02;4.5;;;1.9;;
70942;SDS011;59154;51.970;5.650;2023-04-24T21:40:03;5.2;;;2.4;;
70942;SDS011;59154;51.970;5.650;2023-04-24T21:45:02;6.2;;;2.1;;
70942;SDS011;59154;51.970;5.650;2023-04-24T21:50:02;6.3;;;1.8;;
70942;SDS011;59154;51.970;5.650;2023-04-24T21:55:02;3.5;;;2.1;;
70942;SDS011;59154;51.970;5.650;2023-04-24T22:00:03;5.3;;;1.9;;
70942;SDS011;59154;51.970;5.650;2023-04-24T22:05:03;3.5;;;2.2;;
70942;SDS011;59154;51.970;5.650;2023-04-24T22:10:03;2.9;;;1.6;;
70942;SDS011;59154;51.970;5.650;2023-04-24T22:15:02;3.9;;;1.6;;
70942;SDS011;59154;51.970;5.650;2023-04-24T22:20:03;3.7;;;2.2;;
70942;SDS011;59154;51.970;5.650;2023-04-24T22:25:02;5.1;;;1.8;;
70942;SDS011;59154;51.970;5.650;2023-04-24T22:30:02;4.2;;;2.3;;
70942;SDS011;59154;51.970;5.650;2023-04-24T22:35:03;3.7;;;2.3;;
70942;SDS011;59154;51.970;5.650;2023-04-24T22:40:04;5.3;;;1.7;;
70942;SDS011;59154;51.970;5.650;2023-04-24T22:45:02;4.3;;;1.8;;
70942;SDS011;59154;51.970;5.650;2023-04-24T22:50:02;3.0;;;1.9;;
70942;SDS011;59154;51.970;5.650;2023-04-24T22:55:03;2.9;;;1.8;;
70942;SDS011;59154;51.970;5.650;2023-04-24T23:00:03;4.2;;;1.8;;
70942;SDS011;59154;51.970;5.650;2023-04-24T23:05:02;4.8;;;2.3;;
70942;SDS011;59154;51.970;5.650;2023-04-24T23:10:02;3.8;;;2.1;;
70942;SDS011;59154;51.970;5.650;2023-04-24T23:15:02;6.3;;;2.2;;
70942;SDS011;59154;51.970;5.650;2023-04-24T23:20:03;4.9;;;1.9;;
70942;SDS011;59154;51.970;5.650;2023-04-24T23:25:02;4.9;;;2.2;;
70942;SDS011;59154;51.970;5.650;2023-04-24T23:30:03;4.7;;;2.4;;
70942;SDS011;59154;51.970;5.650;2023-04-24T23:35:02;5.0;;;2.0;;
70942;SDS011;59154;51.970;5.650;2023-04-24T23:40:03;4.2;;;2.1;;
70942;SDS011;59154;51.970;5.650;2023-04-24T23:45:02;4.1;;;2.4;;
70942;SDS011;59154;51.970;5.650;2023-04-24T23:50:02;6.2;;;2.7;;
70942;SDS011;59154;51.970;5.650;2023-04-24T23:55:02;7.2;;;2.7;;
